createdAt,value
2022-09-12T17:41:31.842Z,79.00
2022-09-12T17:44:00.572Z,81.50
2022-09-12T17:46:34.653Z,81.20
2022-09-12T17:49:04.488Z,81.70
2022-09-12T17:51:31.828Z,81.80
2022-09-12T17:54:11.688Z,82.00
2022-09-12T17:56:39.685Z,82.10
2022-09-12T17:59:08.029Z,82.40
2022-09-12T18:01:54.188Z,82.70
2022-09-12T18:04:21.522Z,82.70
2022-09-12T18:06:49.513Z,82.70
2022-09-12T18:09:19.655Z,82.70
2022-09-12T18:11:48.122Z,82.70
2022-09-12T18:14:17.020Z,82.80
2022-09-12T18:16:44.864Z,83.00
2022-09-12T18:19:12.064Z,82.80
2022-09-12T18:21:39.449Z,83.40
2022-09-12T18:24:06.957Z,82.80
2022-09-12T18:26:34.455Z,82.80
2022-09-12T18:29:01.546Z,82.80
2022-09-12T18:31:30.105Z,82.70
2022-09-12T18:33:59.834Z,82.50
2022-09-12T18:36:27.917Z,82.40
2022-09-12T18:38:57.056Z,83.00
2022-09-12T18:41:25.110Z,82.50
2022-09-12T18:43:56.520Z,82.30
2022-09-12T18:46:24.013Z,82.10
2022-09-12T18:48:52.237Z,82.00
2022-09-12T18:51:22.348Z,81.90
2022-09-12T18:53:51.932Z,81.80
2022-09-12T18:56:19.878Z,81.70
2022-09-12T18:58:52.183Z,81.70
2022-09-12T19:01:22.438Z,81.50
2022-09-12T19:03:50.093Z,81.50
2022-09-12T19:06:22.477Z,81.50
2022-09-12T19:08:51.106Z,81.50
2022-09-12T19:11:18.917Z,81.40
2022-09-12T19:13:47.381Z,81.40
2022-09-12T19:16:20.027Z,81.20
2022-09-12T19:18:49.505Z,81.10
2022-09-12T19:21:22.474Z,81.00
2022-09-12T19:23:50.158Z,81.10
2022-09-12T19:26:19.526Z,80.80
2022-09-12T19:28:47.083Z,80.90
2022-09-12T19:31:18.726Z,80.80
2022-09-12T19:33:46.374Z,80.70
2022-09-12T19:36:34.002Z,80.60
2022-09-12T19:39:04.130Z,80.60
2022-09-12T19:41:31.208Z,80.40
2022-09-12T19:43:58.548Z,80.10
2022-09-12T19:46:26.662Z,79.80
2022-09-12T19:48:53.888Z,79.70
2022-09-12T19:51:21.694Z,79.70
2022-09-12T19:53:50.156Z,79.50
2022-09-12T19:56:20.495Z,79.40
2022-09-12T19:58:52.297Z,79.50
2022-09-12T20:01:27.881Z,79.40
2022-09-12T20:03:55.563Z,79.20
2022-09-12T20:06:22.948Z,79.10
2022-09-12T20:08:50.027Z,78.90
2022-09-12T20:11:19.648Z,78.80
2022-09-12T20:13:47.264Z,78.80
2022-09-12T20:16:34.620Z,78.70
2022-09-12T20:19:08.320Z,78.70
2022-09-12T20:21:36.219Z,78.80
2022-09-12T20:24:12.680Z,78.90
2022-09-12T20:26:40.744Z,79.00
2022-09-12T20:29:09.260Z,79.00
2022-09-12T20:31:38.007Z,79.00
2022-09-12T20:34:05.576Z,78.70
2022-09-12T20:36:33.338Z,78.60
2022-09-12T20:39:02.376Z,78.60
2022-09-12T20:41:32.005Z,78.60
2022-09-12T20:43:59.072Z,78.50
2022-09-12T20:46:27.714Z,78.60
2022-09-12T20:48:55.213Z,78.90
2022-09-12T20:51:22.709Z,78.80
2022-09-12T20:53:54.368Z,78.70
2022-09-12T20:56:22.607Z,78.60
2022-09-12T20:58:50.113Z,78.50
2022-09-12T21:01:17.406Z,78.30
2022-09-12T21:03:45.254Z,78.10
2022-09-12T21:06:13.694Z,77.90
2022-09-12T21:08:40.934Z,77.90
2022-09-12T21:11:08.054Z,77.90
2022-09-12T21:13:35.871Z,77.90
2022-09-12T21:16:14.481Z,78.10
2022-09-12T21:18:41.861Z,78.10
2022-09-12T21:21:11.223Z,78.10
2022-09-12T21:23:38.658Z,78.00
2022-09-12T21:26:05.997Z,77.90
2022-09-12T21:28:33.357Z,78.00
2022-09-12T21:31:00.817Z,77.90
2022-09-12T21:33:28.123Z,77.70
2022-09-12T21:35:55.290Z,77.70
2022-09-12T21:38:22.334Z,77.50
2022-09-12T21:40:49.375Z,77.40
2022-09-12T21:43:16.470Z,77.30
2022-09-12T21:45:43.510Z,77.20
2022-09-12T21:48:10.706Z,77.10
2022-09-12T21:50:37.768Z,77.10
2022-09-12T21:53:04.894Z,77.00
2022-09-12T21:55:31.914Z,77.20
2022-09-12T21:57:59.002Z,77.40
2022-09-12T22:00:26.074Z,77.40
2022-09-12T22:02:53.643Z,77.40
2022-09-12T22:05:21.506Z,77.60
2022-09-12T22:07:48.546Z,77.60
2022-09-12T22:10:15.683Z,77.60
2022-09-12T22:12:46.044Z,77.60
2022-09-12T22:15:38.808Z,77.50
2022-09-12T22:18:01.131Z,77.40
2022-09-12T22:20:28.504Z,77.20
2022-09-12T22:23:14.325Z,77.00
2022-09-12T22:25:41.407Z,77.00
2022-09-12T22:28:08.435Z,76.90
2022-09-12T22:30:35.903Z,76.80
2022-09-12T22:33:02.936Z,76.50
2022-09-12T22:35:30.040Z,76.30
2022-09-12T22:37:57.244Z,76.30
2022-09-12T22:40:24.314Z,76.20
2022-09-12T22:42:52.480Z,75.90
2022-09-12T22:45:19.828Z,75.50
2022-09-12T22:47:47.075Z,75.10
2022-09-12T22:50:14.528Z,75.00
2022-09-12T22:52:41.683Z,75.90
2022-09-12T22:55:09.796Z,76.00
2022-09-12T22:57:37.656Z,76.00
2022-09-12T23:00:10.417Z,76.00
2022-09-12T23:02:38.043Z,76.50
2022-09-12T23:05:05.797Z,76.50
2022-09-12T23:07:33.406Z,76.50
2022-09-12T23:10:00.484Z,76.70
2022-09-12T23:12:27.516Z,76.80
2022-09-12T23:14:54.696Z,76.80
2022-09-12T23:17:21.729Z,77.10
2022-09-12T23:19:48.757Z,77.00
2022-09-12T23:22:15.823Z,77.20
2022-09-12T23:24:42.857Z,77.10
2022-09-12T23:27:09.888Z,77.00
2022-09-12T23:29:36.925Z,77.50
2022-09-12T23:32:04.522Z,77.10
2022-09-12T23:34:32.553Z,77.00
2022-09-12T23:36:59.987Z,77.30
2022-09-12T23:39:27.025Z,76.90
2022-09-12T23:41:54.289Z,77.00
2022-09-12T23:44:21.534Z,76.90
2022-09-12T23:46:48.554Z,76.80
2022-09-12T23:49:15.909Z,77.10
2022-09-12T23:51:42.955Z,77.00
2022-09-12T23:54:10.009Z,76.60
2022-09-12T23:56:37.102Z,76.80
2022-09-12T23:59:04.251Z,76.90
